Time;durP1;ratioP1;P1;durP2;ratioP2;P2;SDS_P1;SDS_P2;PMS_P1;PMS_P2;Temp;Humidity;BMP_temperature;BMP_pressure;BME280_temperature;BME280_humidity;BME280_pressure;Samples;Min_cycle;Max_cycle;Signal;HPM_P1;HPM_P2
2023/07/18 00:00:51;;;;;;;8.35;2.80;;;;;;;14.33;100.00;101972.94;4978215;28;20093;-91
2023/07/18 00:03:21;;;;;;;6.57;2.83;;;;;;;14.31;100.00;101975.06;4978422;28;20100;-90
2023/07/18 00:05:49;;;;;;;10.02;2.90;;;;;;;14.28;100.00;101975.50;4994692;28;20085;-91
2023/07/18 00:08:17;;;;;;;5.97;2.77;;;;;;;14.27;100.00;101968.34;4978341;28;20053;-91
2023/07/18 00:10:45;;;;;;;8.32;3.17;;;;;;;14.24;100.00;101976.97;4978664;28;20034;-91
2023/07/18 00:13:22;;;;;;;10.70;2.88;;;;;;;14.20;100.00;101979.28;4977891;28;20030;-90
2023/07/18 00:15:54;;;;;;;21.95;3.50;;;;;;;14.19;100.00;101974.06;4995081;28;20039;-90
2023/07/18 00:18:31;;;;;;;;;;;;;;;;;;;;;
2023/07/18 00:21:02;;;;;;;9.77;3.43;;;;;;;14.08;100.00;101964.59;4996416;28;20042;-91
2023/07/18 00:23:35;;;;;;;10.00;3.13;;;;;;;14.03;100.00;101973.41;5010989;28;20030;-90
2023/07/18 00:26:04;;;;;;;9.63;3.38;;;;;;;13.98;100.00;101980.56;4961875;28;20041;-91
2023/07/18 00:28:31;;;;;;;10.52;3.13;;;;;;;13.94;100.00;101979.31;4977603;28;20023;-90
2023/07/18 00:31:02;;;;;;;12.98;3.33;;;;;;;13.90;100.00;101983.50;4995411;28;20058;-91
2023/07/18 00:33:31;;;;;;;10.57;3.97;;;;;;;13.83;100.00;101986.22;4977556;28;20121;-91
2023/07/18 00:35:58;;;;;;;13.43;4.18;;;;;;;13.82;100.00;101981.84;4977945;28;20033;-91
2023/07/18 00:38:24;;;;;;;12.50;4.03;;;;;;;13.74;100.00;101973.84;4995226;28;20065;-91
2023/07/18 00:40:53;;;;;;;8.53;4.20;;;;;;;13.69;100.00;101977.22;4977083;28;20416;-91
2023/07/18 00:43:18;;;;;;;9.60;4.03;;;;;;;13.63;100.00;101969.88;4993892;28;20042;-91
2023/07/18 00:45:50;;;;;;;13.57;4.20;;;;;;;13.60;100.00;101978.47;5010417;28;20116;-91
2023/07/18 00:48:27;;;;;;;12.70;4.40;;;;;;;13.59;100.00;101982.22;4961599;28;20336;-91
2023/07/18 00:50:52;;;;;;;9.88;4.47;;;;;;;13.54;100.00;101977.41;4977975;28;20466;-91
2023/07/18 00:53:25;;;;;;;9.50;4.40;;;;;;;13.47;100.00;101969.19;5010407;28;20034;-91
2023/07/18 00:55:52;;;;;;;8.38;4.47;;;;;;;13.44;100.00;101960.59;4977400;28;20068;-91
2023/07/18 00:58:20;;;;;;;9.38;4.50;;;;;;;13.40;100.00;101965.63;4977624;28;20066;-91
2023/07/18 01:00:46;;;;;;;6.97;4.00;;;;;;;13.37;100.00;101965.22;4977530;28;20121;-91
2023/07/18 01:03:12;;;;;;;10.77;4.30;;;;;;;13.34;100.00;101958.28;4977304;28;20134;-91
2023/07/18 01:05:40;;;;;;;9.85;4.45;;;;;;;13.30;100.00;101963.28;4977002;28;20026;-91
2023/07/18 01:08:10;;;;;;;7.72;3.72;;;;;;;13.26;100.00;101955.72;4977693;28;20046;-91
2023/07/18 01:10:41;;;;;;;6.57;3.80;;;;;;;13.26;100.00;101963.91;4977430;28;20038;-91
2023/07/18 01:13:08;;;;;;;9.35;4.20;;;;;;;13.24;100.00;101960.53;4995601;28;20072;-91
2023/07/18 01:15:34;;;;;;;5.40;3.72;;;;;;;13.19;100.00;101955.69;4977711;28;20048;-91
2023/07/18 01:18:05;;;;;;;9.27;3.90;;;;;;;13.17;100.00;101957.81;4977427;28;20030;-91
2023/07/18 01:20:33;;;;;;;10.33;4.40;;;;;;;13.14;100.00;101955.50;4977671;28;20278;-91
2023/07/18 01:23:05;;;;;;;7.35;3.42;;;;;;;13.10;100.00;101952.31;5010231;28;20038;-91
2023/07/18 01:25:33;;;;;;;10.85;3.78;;;;;;;13.05;100.00;101934.91;4962340;28;20037;-91
2023/07/18 01:28:03;;;;;;;8.98;3.80;;;;;;;13.03;100.00;101947.91;4977192;28;20030;-91
2023/07/18 01:30:32;;;;;;;9.85;3.67;;;;;;;13.01;100.00;101948.09;5009631;28;20046;-91
2023/07/18 01:33:00;;;;;;;11.83;3.83;;;;;;;12.97;100.00;101953.09;4978120;28;20070;-91
2023/07/18 01:35:29;;;;;;;18.88;4.40;;;;;;;12.97;100.00;101958.56;4977329;28;20037;-91
2023/07/18 01:37:58;;;;;;;7.80;3.80;;;;;;;12.94;100.00;101947.25;4976979;28;20117;-91
2023/07/18 01:40:24;;;;;;;13.57;3.97;;;;;;;12.90;100.00;101940.50;4977220;28;20041;-91
2023/07/18 01:42:58;;;;;;;12.60;4.97;;;;;;;12.86;100.00;101936.50;4977088;28;20035;-91
2023/07/18 01:45:28;;;;;;;7.50;3.63;;;;;;;12.87;100.00;101932.75;4977123;28;20050;-91
2023/07/18 01:47:59;;;;;;;5.88;4.07;;;;;;;12.85;100.00;101938.41;5009957;28;20037;-91
2023/07/18 01:50:31;;;;;;;8.13;3.67;;;;;;;12.81;100.00;101940.72;5009739;28;20105;-91
2023/07/18 01:52:59;;;;;;;9.87;3.53;;;;;;;12.77;100.00;101934.00;4981289;28;20034;-91
2023/07/18 01:55:26;;;;;;;8.73;3.85;;;;;;;12.76;100.00;101939.63;4981009;28;20035;-91
2023/07/18 01:57:55;;;;;;;9.10;3.40;;;;;;;12.74;100.00;101930.81;4998062;28;20057;-90
2023/07/18 02:00:20;;;;;;;8.43;3.47;;;;;;;12.74;100.00;101933.53;5013663;28;20029;-91
2023/07/18 02:02:48;;;;;;;7.20;3.50;;;;;;;12.70;100.00;101919.50;4981160;28;20038;-91
2023/07/18 02:05:20;;;;;;;5.70;3.15;;;;;;;12.73;100.00;101923.72;4980890;28;20030;-91
2023/07/18 02:07:47;;;;;;;10.73;3.45;;;;;;;12.71;100.00;101923.06;4981129;28;20034;-91
2023/07/18 02:10:22;;;;;;;8.43;3.60;;;;;;;12.71;100.00;101921.19;4980626;28;20093;-91
2023/07/18 02:12:55;;;;;;;8.03;3.57;;;;;;;12.70;100.00;101919.50;4981922;28;20034;-90
2023/07/18 02:15:28;;;;;;;4.88;3.03;;;;;;;12.68;100.00;101918.88;4980721;28;20042;-91
2023/07/18 02:17:56;;;;;;;5.85;3.20;;;;;;;12.66;100.00;101918.22;4965091;28;20034;-91
2023/07/18 02:20:27;;;;;;;7.28;3.13;;;;;;;12.63;100.00;101915.91;4980498;28;20038;-91
2023/07/18 02:23:02;;;;;;;8.32;3.20;;;;;;;12.59;100.00;101918.22;4975745;28;20038;-91
2023/07/18 02:25:32;;;;;;;9.87;3.40;;;;;;;12.53;100.00;101919.00;4980553;28;20085;-91
2023/07/18 02:27:58;;;;;;;5.65;3.17;;;;;;;12.51;100.00;101923.00;4997879;28;20109;-90
2023/07/18 02:30:23;;;;;;;9.53;3.40;;;;;;;12.46;100.00;101921.72;4998069;28;20169;-90
2023/07/18 02:32:53;;;;;;;5.78;3.00;;;;;;;12.43;100.00;101911.22;4980221;28;20030;-91
2023/07/18 02:35:24;;;;;;;10.38;3.28;;;;;;;12.43;100.00;101915.81;4980198;28;20026;-90
2023/07/18 02:37:59;;;;;;;10.10;3.23;;;;;;;12.41;100.00;101921.44;4980369;28;20109;-91
2023/07/18 02:40:24;;;;;;;7.40;3.08;;;;;;;12.40;100.00;101918.94;4980737;28;20035;-91
2023/07/18 02:42:52;;;;;;;6.13;3.10;;;;;;;12.36;100.00;101917.69;4980682;28;20065;-91
2023/07/18 02:45:18;;;;;;;4.93;2.80;;;;;;;12.37;100.00;101925.66;4979968;28;20285;-91
2023/07/18 02:47:45;;;;;;;6.22;3.17;;;;;;;12.32;100.00;101919.13;4979932;28;20039;-91
2023/07/18 02:50:11;;;;;;;5.93;3.37;;;;;;;12.33;100.00;101918.06;5012675;28;20026;-90
2023/07/18 02:52:40;;;;;;;7.13;3.58;;;;;;;12.31;100.00;101914.72;4996976;28;20034;-90
2023/07/18 02:55:06;;;;;;;7.22;4.25;;;;;;;12.27;100.00;101922.44;4997160;28;20030;-91
2023/07/18 02:57:34;;;;;;;6.60;3.43;;;;;;;12.23;100.00;101919.25;4979444;28;20069;-90
2023/07/18 02:59:59;;;;;;;6.72;3.90;;;;;;;12.21;100.00;101917.78;4979529;28;20039;-89
2023/07/18 03:02:25;;;;;;;6.47;3.67;;;;;;;12.24;100.00;101920.13;4979165;28;20041;-90
2023/07/18 03:04:51;;;;;;;12.55;4.57;;;;;;;12.18;100.00;101919.03;4978621;28;20531;-90
2023/07/18 03:07:17;;;;;;;10.23;4.10;;;;;;;12.18;100.00;101913.59;4996896;28;20030;-90
2023/07/18 03:09:43;;;;;;;10.10;3.73;;;;;;;12.19;100.00;101915.25;4979959;28;20286;-90
2023/07/18 03:12:10;;;;;;;7.10;3.35;;;;;;;12.18;100.00;101910.88;5012059;28;20041;-90
2023/07/18 03:14:36;;;;;;;5.90;3.17;;;;;;;12.15;100.00;101915.88;4979343;28;20129;-90
2023/07/18 03:17:01;;;;;;;8.33;3.43;;;;;;;12.14;100.00;101925.09;4979064;28;20166;-90
2023/07/18 03:19:34;;;;;;;8.33;3.37;;;;;;;12.10;100.00;101920.00;4978986;28;20076;-90
2023/07/18 03:22:00;;;;;;;8.48;3.40;;;;;;;12.03;100.00;101913.72;4979359;28;20027;-89
2023/07/18 03:24:31;;;;;;;6.93;3.27;;;;;;;11.99;100.00;101909.72;4978990;28;20101;-90
2023/07/18 03:26:57;;;;;;;10.93;4.07;;;;;;;11.96;100.00;101910.09;4979050;28;20105;-90
2023/07/18 03:29:26;;;;;;;6.23;3.03;;;;;;;11.96;100.00;101914.69;4978945;28;20030;-90
2023/07/18 03:31:51;;;;;;;6.47;3.10;;;;;;;11.90;100.00;101919.03;4978786;28;20069;-90
2023/07/18 03:34:17;;;;;;;7.83;3.30;;;;;;;11.87;100.00;101914.81;4978851;28;20069;-90
2023/07/18 03:36:42;;;;;;;4.88;3.03;;;;;;;11.83;100.00;101915.44;4979593;28;20034;-90
2023/07/18 03:39:08;;;;;;;7.30;2.90;;;;;;;11.80;100.00;101913.94;4978699;28;20103;-89
2023/07/18 03:41:33;;;;;;;5.32;2.88;;;;;;;11.79;100.00;101908.69;4978274;28;20065;-90
2023/07/18 03:44:04;;;;;;;7.87;3.43;;;;;;;11.77;100.00;101920.59;4979389;28;20032;-90
2023/07/18 03:46:35;;;;;;;7.70;3.25;;;;;;;11.71;100.00;101917.84;4996040;28;20062;-90
2023/07/18 03:49:03;;;;;;;5.82;2.90;;;;;;;11.70;100.00;101910.72;4979447;28;20031;-90
2023/07/18 03:51:30;;;;;;;10.77;3.00;;;;;;;11.66;100.00;101913.00;4978740;28;20035;-90
2023/07/18 03:53:56;;;;;;;9.02;3.40;;;;;;;11.63;100.00;101916.09;5013064;28;20027;-90
2023/07/18 03:56:24;;;;;;;7.70;3.13;;;;;;;11.60;100.00;101911.03;4978327;28;20576;-90
2023/07/18 03:58:59;;;;;;;5.87;2.83;;;;;;;11.63;100.00;101918.78;4962479;28;20133;-90
2023/07/18 04:01:24;;;;;;;9.60;3.20;;;;;;;11.55;100.00;101908.09;4995885;28;20042;-90
2023/07/18 04:03:53;;;;;;;4.53;3.05;;;;;;;11.54;100.00;101915.38;4979149;28;20038;-89
2023/07/18 04:06:21;;;;;;;8.47;2.97;;;;;;;11.50;100.00;101905.09;4978343;28;20030;-90
2023/07/18 04:08:51;;;;;;;8.13;2.75;;;;;;;11.52;100.00;101903.88;4962619;28;20474;-90
2023/07/18 04:11:17;;;;;;;8.18;3.28;;;;;;;11.53;100.00;101894.69;5011291;28;20463;-90
2023/07/18 04:13:43;;;;;;;5.55;3.10;;;;;;;11.50;100.00;101894.22;4977970;28;20034;-90
2023/07/18 04:16:11;;;;;;;6.30;2.70;;;;;;;11.52;100.00;101889.44;4961888;28;20041;-90
2023/07/18 04:18:39;;;;;;;7.07;3.05;;;;;;;11.54;100.00;101890.09;4995625;28;20058;-90
2023/07/18 04:21:06;;;;;;;5.75;2.88;;;;;;;11.50;100.00;101891.50;4962304;28;20506;-90
2023/07/18 04:23:32;;;;;;;7.67;2.70;;;;;;;11.52;100.00;101884.03;5011240;28;20031;-90
2023/07/18 04:26:03;;;;;;;8.55;2.40;;;;;;;11.52;100.00;101879.41;4996016;28;20045;-90
2023/07/18 04:28:36;;;;;;;5.38;2.65;;;;;;;11.53;100.00;101883.81;4978310;28;20038;-90
2023/07/18 04:31:04;;;;;;;8.60;2.80;;;;;;;11.51;100.00;101877.72;4996098;28;20029;-90
2023/07/18 04:33:38;;;;;;;6.60;2.58;;;;;;;11.55;100.00;101886.34;4977697;28;20069;-91
2023/07/18 04:36:07;;;;;;;4.90;2.90;;;;;;;11.58;100.00;101888.66;4977703;28;20114;-90
2023/07/18 04:38:33;;;;;;;6.80;2.72;;;;;;;11.60;100.00;101889.28;4977513;28;20529;-90
2023/07/18 04:41:19;;;;;;;8.32;2.63;;;;;;;11.62;100.00;101880.94;4977855;28;20022;-90
2023/07/18 04:43:47;;;;;;;7.73;2.50;;;;;;;11.65;100.00;101886.84;4977523;28;20042;-90
2023/07/18 04:46:15;;;;;;;7.78;2.55;;;;;;;11.69;100.00;101890.84;4967868;28;20050;-91
2023/07/18 04:48:40;;;;;;;6.68;2.35;;;;;;;11.72;100.00;101889.59;4958286;28;20054;-91
2023/07/18 04:51:11;;;;;;;10.23;2.60;;;;;;;11.77;100.00;101887.13;4957877;28;20028;-91
2023/07/18 04:53:36;;;;;;;7.30;2.47;;;;;;;11.81;100.00;101884.84;4958848;28;20126;-91
2023/07/18 04:56:07;;;;;;;4.90;2.47;;;;;;;11.83;100.00;101886.34;4959049;28;20122;-91
2023/07/18 04:58:33;;;;;;;8.70;2.80;;;;;;;11.86;100.00;101880.50;4958999;28;20118;-90
2023/07/18 05:00:59;;;;;;;5.57;2.33;;;;;;;11.89;100.00;101882.81;4958003;28;20073;-90
2023/07/18 05:03:33;;;;;;;5.05;2.70;;;;;;;11.93;100.00;101877.88;4957863;28;20121;-90
2023/07/18 05:06:01;;;;;;;6.75;2.15;;;;;;;11.96;100.00;101877.47;4958244;28;20050;-90
2023/07/18 05:08:26;;;;;;;4.55;2.17;;;;;;;11.99;100.00;101877.06;4958003;28;20039;-90
2023/07/18 05:11:00;;;;;;;4.40;2.30;;;;;;;12.10;100.00;101876.50;4957510;28;20045;-83
2023/07/18 05:13:25;;;;;;;4.38;2.50;;;;;;;12.16;100.00;101879.47;4975449;28;20490;-84
2023/07/18 05:15:51;;;;;;;4.57;2.20;;;;;;;12.32;100.00;101886.47;4974768;28;20022;-84
2023/07/18 05:18:16;;;;;;;6.23;2.30;;;;;;;12.43;100.00;101880.41;4926188;28;20130;-84
2023/07/18 05:20:42;;;;;;;8.18;2.60;;;;;;;12.56;100.00;101880.50;4925921;28;20479;-84
2023/07/18 05:23:07;;;;;;;7.90;2.40;;;;;;;12.62;100.00;101879.69;4974903;28;20038;-85
2023/07/18 05:25:33;;;;;;;6.13;2.13;;;;;;;12.70;100.00;101873.22;4957650;28;20466;-84
2023/07/18 05:28:00;;;;;;;8.38;2.70;;;;;;;12.72;100.00;101875.72;4957215;28;20039;-85
2023/07/18 05:30:27;;;;;;;4.87;2.20;;;;;;;12.76;100.00;101874.28;4943131;28;20031;-84
2023/07/18 05:32:55;;;;;;;6.25;2.50;;;;;;;12.81;100.00;101875.34;4942269;28;20049;-86
2023/07/18 05:35:20;;;;;;;9.10;2.72;;;;;;;12.93;100.00;101872.88;4957456;28;20057;-85
2023/07/18 05:37:46;;;;;;;6.30;3.00;;;;;;;12.96;100.00;101871.59;4957782;28;20034;-86
2023/07/18 05:40:12;;;;;;;3.87;2.60;;;;;;;13.03;100.00;101875.16;4974982;28;20042;-85
2023/07/18 05:42:38;;;;;;;5.70;1.73;;;;;;;13.16;100.00;101877.09;4974679;28;20487;-86
2023/07/18 05:45:05;;;;;;;4.50;2.22;;;;;;;13.26;100.00;101879.41;4957164;28;20042;-84
2023/07/18 05:47:31;;;;;;;8.63;2.22;;;;;;;13.26;100.00;101879.41;4970899;28;20130;-85
2023/07/18 05:49:56;;;;;;;9.40;2.45;;;;;;;13.31;100.00;101888.63;4994463;28;20117;-85
2023/07/18 05:52:22;;;;;;;7.23;2.40;;;;;;;13.36;100.00;101881.75;4976327;28;20042;-85
2023/07/18 05:54:50;;;;;;;7.43;2.50;;;;;;;13.39;100.00;101884.06;4944648;28;20034;-84
2023/07/18 05:57:15;;;;;;;10.73;2.53;;;;;;;13.40;100.00;101878.38;4944423;28;20085;-84
2023/07/18 05:59:41;;;;;;;9.30;2.50;;;;;;;13.50;100.00;101888.88;4976961;28;20038;-85
2023/07/18 06:02:07;;;;;;;4.13;2.30;;;;;;;13.56;100.00;101893.50;4976618;28;20467;-84
2023/07/18 06:04:32;;;;;;;5.05;2.17;;;;;;;13.65;100.00;101899.59;4977038;28;20178;-85
2023/07/18 06:06:58;;;;;;;4.67;2.40;;;;;;;13.72;100.00;101903.16;4993696;28;20498;-85
2023/07/18 06:09:23;;;;;;;8.83;2.20;;;;;;;13.77;100.00;101886.97;4994255;28;20102;-84
2023/07/18 06:11:50;;;;;;;5.82;2.20;;;;;;;13.82;100.00;101892.66;4994048;28;20085;-84
2023/07/18 06:14:16;;;;;;;6.10;2.28;;;;;;;13.91;100.00;101898.72;4976199;28;20578;-84
2023/07/18 06:16:41;;;;;;;7.93;2.43;;;;;;;13.98;100.00;101899.56;4976860;28;20129;-85
2023/07/18 06:19:07;;;;;;;7.05;2.33;;;;;;;14.07;100.00;101891.13;4993786;28;20034;-84
2023/07/18 06:21:32;;;;;;;7.67;2.23;;;;;;;14.14;100.00;101889.22;4993483;28;20036;-84
2023/07/18 06:23:58;;;;;;;6.23;1.87;;;;;;;14.19;100.00;101887.53;4976434;28;20039;-84
2023/07/18 06:26:23;;;;;;;8.73;1.90;;;;;;;14.29;99.48;101895.28;4976203;28;20041;-85
2023/07/18 06:28:49;;;;;;;7.80;1.97;;;;;;;14.35;98.20;101890.84;4993750;28;20038;-86
2023/07/18 06:31:15;;;;;;;5.28;1.80;;;;;;;14.42;97.30;101885.38;4993823;28;20030;-85
2023/07/18 06:33:41;;;;;;;6.10;1.90;;;;;;;14.58;95.88;101884.88;4975920;28;20035;-85
2023/07/18 06:36:07;;;;;;;5.45;1.85;;;;;;;14.64;96.24;101889.50;4993804;28;20030;-85
2023/07/18 06:38:33;;;;;;;6.57;1.70;;;;;;;14.69;96.80;101884.22;4995661;28;20105;-85
2023/07/18 06:40:58;;;;;;;7.10;2.00;;;;;;;14.78;97.50;101890.28;4997953;28;20506;-85
2023/07/18 06:43:24;;;;;;;6.53;2.03;;;;;;;14.82;96.23;101893.41;4979846;28;20030;-85
2023/07/18 06:45:50;;;;;;;5.33;1.60;;;;;;;14.87;94.99;101888.97;4996886;28;20333;-85
2023/07/18 06:48:16;;;;;;;7.47;1.70;;;;;;;14.98;94.26;101887.44;4978292;28;20090;-85
2023/07/18 06:50:51;;;;;;;6.03;1.65;;;;;;;15.08;94.62;101878.75;4979559;28;20046;-85
2023/07/18 06:53:19;;;;;;;4.85;2.08;;;;;;;15.16;94.08;101873.03;4996982;28;20058;-85
2023/07/18 06:55:51;;;;;;;6.10;1.50;;;;;;;15.31;93.38;101878.19;4996763;28;20501;-85
2023/07/18 06:58:17;;;;;;;4.28;1.23;;;;;;;15.44;93.18;101869.88;4964806;28;20050;-85
2023/07/18 07:00:43;;;;;;;4.45;1.38;;;;;;;15.51;91.04;101874.44;4996723;28;20058;-85
2023/07/18 07:03:12;;;;;;;5.32;1.00;;;;;;;15.55;88.98;101879.25;4979545;28;20038;-85
2023/07/18 07:05:39;;;;;;;3.65;0.88;;;;;;;15.64;88.95;101870.75;4996457;28;20062;-85
2023/07/18 07:08:08;;;;;;;8.97;1.47;;;;;;;15.72;88.37;101882.25;4980065;28;20465;-85
2023/07/18 07:10:37;;;;;;;4.47;1.40;;;;;;;15.83;86.75;101885.34;4980074;28;20034;-85
2023/07/18 07:13:03;;;;;;;8.32;1.33;;;;;;;15.90;85.72;101880.63;4979241;28;20541;-85
2023/07/18 07:15:34;;;;;;;3.60;0.90;;;;;;;16.03;84.41;101885.13;4996529;28;20034;-85
2023/07/18 07:18:01;;;;;;;4.70;1.00;;;;;;;16.14;83.02;101884.38;4996864;28;20026;-85
2023/07/18 07:20:28;;;;;;;7.23;1.27;;;;;;;16.18;82.50;101880.13;4978676;28;20034;-85
2023/07/18 07:22:54;;;;;;;1.67;0.75;;;;;;;16.24;83.01;101876.47;4996210;28;20026;-85
2023/07/18 07:25:20;;;;;;;4.25;1.00;;;;;;;16.29;82.73;101879.34;4996640;28;20030;-85
2023/07/18 07:27:46;;;;;;;4.60;1.23;;;;;;;16.36;81.25;101876.56;4996698;28;20041;-85
2023/07/18 07:30:15;;;;;;;3.13;0.90;;;;;;;16.42;81.56;101878.38;4996386;28;20109;-85
2023/07/18 07:32:51;;;;;;;2.63;0.70;;;;;;;16.49;79.88;101872.81;4995918;28;20479;-85
2023/07/18 07:35:18;;;;;;;4.07;1.00;;;;;;;16.58;77.76;101879.66;4979330;28;20100;-85
2023/07/18 07:37:44;;;;;;;3.78;1.00;;;;;;;16.66;77.37;101881.22;4996631;28;20044;-85
2023/07/18 07:40:11;;;;;;;2.63;0.90;;;;;;;16.70;78.52;101867.88;4978610;28;20117;-85
2023/07/18 07:42:38;;;;;;;5.70;1.03;;;;;;;16.73;79.38;101867.47;4978362;28;20034;-85
2023/07/18 07:45:04;;;;;;;6.63;1.48;;;;;;;16.75;78.43;101876.28;4996697;28;20035;-85
2023/07/18 07:47:30;;;;;;;5.45;1.08;;;;;;;16.82;77.80;101866.88;4976431;28;20137;-85
2023/07/18 07:49:55;;;;;;;4.57;1.03;;;;;;;16.91;77.57;101878.38;4995734;28;20077;-85
2023/07/18 07:52:21;;;;;;;3.22;1.20;;;;;;;16.96;76.78;101867.56;4978536;28;20031;-85
2023/07/18 07:54:48;;;;;;;4.13;0.90;;;;;;;17.04;76.44;101869.13;4978302;28;20041;-86
2023/07/18 07:57:14;;;;;;;5.28;1.10;;;;;;;17.09;74.61;101869.25;4962855;28;20120;-85
2023/07/18 07:59:39;;;;;;;6.27;1.00;;;;;;;17.17;73.10;101873.59;4978505;28;20034;-85
2023/07/18 08:02:05;;;;;;;2.37;0.80;;;;;;;17.28;73.14;101866.44;4978255;28;20088;-85
2023/07/18 08:04:30;;;;;;;2.85;0.90;;;;;;;17.31;71.94;101865.97;4978123;28;20030;-86
2023/07/18 08:06:56;;;;;;;4.97;0.90;;;;;;;17.36;70.44;101868.84;4962790;28;20038;-87
2023/07/18 08:09:22;;;;;;;5.93;0.87;;;;;;;17.42;68.68;101867.06;4996287;28;20467;-86
2023/07/18 08:11:48;;;;;;;7.97;0.80;;;;;;;17.48;66.95;101868.84;4962073;28;20053;-86
2023/07/18 08:14:14;;;;;;;1.98;0.60;;;;;;;17.56;65.21;101867.69;4962251;28;20467;-85
2023/07/18 08:16:41;;;;;;;5.97;0.77;;;;;;;17.62;66.27;101862.06;4961768;28;20034;-86
2023/07/18 08:19:07;;;;;;;4.18;0.50;;;;;;;17.72;64.21;101864.22;4995567;28;20034;-86
2023/07/18 08:21:33;;;;;;;3.23;0.60;;;;;;;17.82;63.90;101861.72;4962467;28;20133;-85
2023/07/18 08:23:59;;;;;;;2.00;0.55;;;;;;;17.95;63.62;101866.16;4995235;28;20124;-85
2023/07/18 08:26:25;;;;;;;2.53;0.60;;;;;;;18.06;62.46;101864.47;4978222;28;20043;-85
2023/07/18 08:28:50;;;;;;;4.83;0.77;;;;;;;18.16;62.43;101850.97;4995303;28;20081;-86
2023/07/18 08:31:15;;;;;;;2.10;0.50;;;;;;;18.23;61.25;101857.16;4977723;28;20133;-86
2023/07/18 08:33:41;;;;;;;5.17;0.50;;;;;;;18.31;61.20;101849.63;4961684;28;20065;-86
2023/07/18 08:36:06;;;;;;;2.28;0.50;;;;;;;18.36;59.14;101846.97;4977642;28;20034;-86
2023/07/18 08:38:32;;;;;;;2.53;0.50;;;;;;;18.35;59.13;101845.28;4994823;28;20030;-85
2023/07/18 08:40:58;;;;;;;2.03;0.40;;;;;;;18.36;56.90;101850.53;4994773;28;20403;-85
2023/07/18 08:43:24;;;;;;;1.02;0.43;;;;;;;18.34;56.89;101840.91;4977974;28;20031;-85
2023/07/18 08:45:51;;;;;;;5.70;0.68;;;;;;;18.44;56.83;101846.59;4977228;28;20031;-86
2023/07/18 08:48:16;;;;;;;1.90;0.50;;;;;;;18.45;58.33;101841.94;4977083;28;20058;-86
2023/07/18 08:50:42;;;;;;;1.63;0.50;;;;;;;18.54;58.34;101838.56;4945578;28;20100;-87
2023/07/18 08:53:08;;;;;;;3.10;0.70;;;;;;;18.59;59.59;101837.81;4977400;28;20038;-84
2023/07/18 08:55:34;;;;;;;1.60;0.50;;;;;;;18.70;57.77;101845.16;4994539;28;20101;-84
2023/07/18 08:58:00;;;;;;;1.87;0.60;;;;;;;18.75;56.37;101828.78;4960990;28;20073;-84
2023/07/18 09:00:26;;;;;;;1.95;0.50;;;;;;;18.87;56.85;101825.19;4977439;28;20034;-84
2023/07/18 09:02:51;;;;;;;2.87;0.70;;;;;;;18.98;57.57;101828.94;4977154;28;20558;-83
2023/07/18 09:05:31;;;;;;;2.70;0.77;;;;;;;19.07;59.09;101821.94;4994634;28;20038;-84
2023/07/18 09:07:58;;;;;;;4.00;0.90;;;;;;;19.18;58.31;101812.78;4994876;28;20030;-83
2023/07/18 09:10:24;;;;;;;2.58;0.70;;;;;;;19.36;57.98;101814.44;4977292;28;20080;-83
2023/07/18 09:12:49;;;;;;;1.55;0.70;;;;;;;19.55;57.61;101817.75;4976879;28;20034;-83
2023/07/18 09:15:19;;;;;;;3.33;0.70;;;;;;;19.77;56.80;101808.72;4995029;28;20031;-84
2023/07/18 09:17:53;;;;;;;1.85;0.70;;;;;;;19.97;55.59;101808.16;4994127;28;20034;-84
2023/07/18 09:20:19;;;;;;;2.40;0.70;;;;;;;20.26;54.64;101803.31;4977660;28;20459;-83
2023/07/18 09:22:44;;;;;;;2.93;0.60;;;;;;;20.40;54.54;101806.47;4976876;28;20081;-84
2023/07/18 09:25:14;;;;;;;3.30;0.80;;;;;;;20.44;54.10;101795.78;4976922;28;20349;-84
2023/07/18 09:27:39;;;;;;;4.22;0.70;;;;;;;20.49;54.14;101790.31;4960783;28;20026;-84
2023/07/18 09:30:05;;;;;;;1.27;0.70;;;;;;;20.61;53.81;101787.41;4960795;28;20511;-83
2023/07/18 09:32:31;;;;;;;1.58;0.70;;;;;;;20.77;53.01;101786.53;4976762;28;20498;-84
2023/07/18 09:35:00;;;;;;;1.77;0.80;;;;;;;20.96;52.57;101786.94;4976946;28;20038;-84
2023/07/18 09:37:27;;;;;;;5.25;0.60;;;;;;;21.33;51.60;101779.78;4994159;28;20041;-83
2023/07/18 09:39:54;;;;;;;4.13;0.80;;;;;;;21.54;51.32;101784.38;4976964;28;20102;-84
2023/07/18 09:42:23;;;;;;;2.28;0.63;;;;;;;21.61;49.91;101786.88;4960712;28;20057;-84
2023/07/18 09:44:50;;;;;;;4.30;0.70;;;;;;;21.70;49.48;101784.44;4976655;28;20034;-84
2023/07/18 09:47:16;;;;;;;3.08;0.70;;;;;;;21.69;48.51;101796.63;4976117;28;20055;-84
2023/07/18 09:49:45;;;;;;;2.28;0.70;;;;;;;21.52;49.61;101780.22;4961019;28;20376;-84
2023/07/18 09:52:11;;;;;;;2.30;0.87;;;;;;;21.35;50.04;101794.16;4994279;28;20038;-84
2023/07/18 09:54:38;;;;;;;2.17;0.70;;;;;;;21.17;51.23;101782.44;4976534;28;20471;-84
2023/07/18 09:57:12;;;;;;;2.08;0.70;;;;;;;21.11;50.31;101790.94;4961352;28;20042;-84
2023/07/18 09:59:39;;;;;;;3.47;0.68;;;;;;;21.16;50.28;101786.28;4994330;28;20113;-84
2023/07/18 10:02:10;;;;;;;1.75;0.60;;;;;;;21.32;50.18;101786.41;4977149;28;20379;-84
2023/07/18 10:04:36;;;;;;;1.53;0.50;;;;;;;21.36;48.50;101782.00;4976743;28;20030;-84
2023/07/18 10:07:02;;;;;;;2.35;0.60;;;;;;;21.53;48.36;101777.19;4976232;28;20030;-84
2023/07/18 10:09:30;;;;;;;3.63;0.70;;;;;;;21.79;48.43;101771.81;4960431;28;20475;-84
2023/07/18 10:11:58;;;;;;;1.52;0.60;;;;;;;21.99;48.16;101770.22;4993894;28;20042;-84
2023/07/18 10:14:27;;;;;;;3.60;0.97;;;;;;;22.15;48.36;101766.41;4980354;28;20042;-84
2023/07/18 10:16:54;;;;;;;2.10;0.90;;;;;;;22.54;47.44;101752.19;4980509;28;20041;-85
2023/07/18 10:19:25;;;;;;;6.22;0.73;;;;;;;23.22;46.61;101744.72;4965063;28;20037;-84
2023/07/18 10:21:59;;;;;;;4.85;0.80;;;;;;;23.54;45.30;101741.59;4998704;28;20044;-90
2023/07/18 10:24:33;;;;;;;3.47;0.80;;;;;;;23.64;43.66;101733.25;4973099;28;20101;-88
2023/07/18 10:27:08;;;;;;;4.23;1.00;;;;;;;23.87;45.66;101730.97;4980282;28;20380;-88
2023/07/18 10:30:00;;;;;;;2.35;0.60;;;;;;;24.17;46.13;101731.94;4980275;28;20046;-88
2023/07/18 10:32:31;;;;;;;2.53;0.90;;;;;;;24.04;43.97;101724.25;4980549;28;20037;-87
2023/07/18 10:34:57;;;;;;;1.55;0.70;;;;;;;23.51;43.65;101725.53;4980988;28;20459;-88
2023/07/18 10:37:30;;;;;;;1.25;0.60;;;;;;;23.50;44.66;101729.41;4979687;28;20032;-88
2023/07/18 10:40:04;;;;;;;2.30;0.90;;;;;;;23.53;44.55;101728.03;4979645;28;20023;-88
2023/07/18 10:42:32;;;;;;;1.40;0.63;;;;;;;23.72;44.52;101723.53;4965104;28;20455;-87
2023/07/18 10:45:00;;;;;;;3.58;0.73;;;;;;;23.82;43.79;101725.44;4980639;28;20113;-88
2023/07/18 10:47:30;;;;;;;1.95;0.80;;;;;;;24.02;43.88;101721.78;4977729;28;20493;-89
2023/07/18 10:49:59;;;;;;;2.30;0.73;;;;;;;24.23;42.76;101721.66;4979829;28;20092;-88
2023/07/18 10:52:28;;;;;;;2.90;0.90;;;;;;;24.47;43.00;101721.75;4997219;28;20041;-88
2023/07/18 10:54:58;;;;;;;1.90;0.68;;;;;;;24.56;42.81;101710.88;4980278;28;20030;-88
2023/07/18 10:57:25;;;;;;;2.00;0.70;;;;;;;24.72;42.73;101706.88;4997150;28;20045;-89
2023/07/18 10:59:52;;;;;;;5.07;0.95;;;;;;;24.68;41.54;101714.13;4979227;28;20039;-87
2023/07/18 11:02:19;;;;;;;2.40;0.90;;;;;;;24.45;43.15;101710.13;4979154;28;20038;-89
2023/07/18 11:04:45;;;;;;;2.93;0.97;;;;;;;24.45;42.00;101707.38;4979739;28;20034;-89
2023/07/18 11:07:13;;;;;;;6.00;1.00;;;;;;;23.98;42.78;101717.91;4979404;28;20506;-88
2023/07/18 11:09:48;;;;;;;3.42;1.00;;;;;;;23.85;42.41;101716.56;4979462;28;20038;-89
2023/07/18 11:12:21;;;;;;;8.43;0.93;;;;;;;24.17;42.95;101713.34;4979561;28;20045;-88
2023/07/18 11:14:47;;;;;;;6.33;1.00;;;;;;;24.07;42.32;101712.59;4979763;28;20499;-88
2023/07/18 11:17:21;;;;;;;7.38;1.08;;;;;;;24.35;43.03;101703.53;4996446;28;20472;-88
2023/07/18 11:19:47;;;;;;;6.07;0.83;;;;;;;24.64;41.16;101699.19;4982321;28;20534;-88
2023/07/18 11:22:16;;;;;;;3.13;1.00;;;;;;;25.12;41.20;101710.41;4980471;28;20155;-89
2023/07/18 11:24:43;;;;;;;3.38;1.00;;;;;;;26.03;40.60;101690.19;4963153;28;20546;-89